Météo Nord-Pas-de-Calais   La météo au plus près de chez vous

Station météorologique

Observations météo à Lurcy-Levis Sa (03155)

03155003 225 m Dernier relevé à 05:12
12.4°C
Humidité 90 % Vent 0 km/h

Journée consultée

Dimanche 6 Septembre 2026

Synthèse de la journée

Périodes de référence en UTC

Température maximale

27.3°C

à 18:00

06h 06h

Température minimale

12.2°C

à 05:00

18h 18h

Rafale maximale

5 km/h

à 04:30

00h 00h

Précipitations

0 mm

Cumul quotidien

06h 06h

Ensoleillement

0h 0 mins

Durée quotidienne

00h 00h

Graphiques de la journée

Heure locale Réduire

Données détaillées

Relevés météo

Pas de 6 minutes Afficher les relevés infra-horaires
Relevés météo détaillés à Lurcy-Levis Sa pour le Dimanche 6 Septembre 2026
Heure Température °C Point de rosée °C Humidité % Vent moyen (raf.), km/h Précipitations mm Ensoleillement min Rayonnement global W/m²
05:12 12.4 °C 11.5 °C 94 % 0 km/h (3 km/h) 0 mm0 mm 0 min 0 W/m²
05:06 12.2 °C 11.1 °C 93 % 0 km/h (0 km/h) 0 mm0 mm 0 min 0 W/m²
05:00 12.2 °C 10.9 °C 92 % 0 km/h (2 km/h) 0 mm0 mm 0 min 0 W/m²
04:54 12.3 °C 10.9 °C 91 % 2 km/h (3 km/h) 0 mm0 mm 0 min 0 W/m²
04:48 12.7 °C 11.4 °C 92 % 2 km/h (4 km/h) 0 mm0 mm 0 min 0 W/m²
04:42 12.8 °C 11.7 °C 93 % 2 km/h (5 km/h) 0 mm0 mm 0 min 0 W/m²
04:36 13 °C 11.9 °C 93 % 3 km/h (5 km/h) 0 mm0 mm 0 min 0 W/m²
04:30 13 °C 11.9 °C 93 % 2 km/h (5 km/h) 0 mm0 mm 0 min 0 W/m²
04:24 13 °C 11.9 °C 93 % 0 km/h (2 km/h) 0 mm0 mm 0 min 0 W/m²
04:18 12.9 °C 11.6 °C 92 % 0 km/h (2 km/h) 0 mm0 mm 0 min 0 W/m²
04:12 12.8 °C 11.2 °C 90 % 0 km/h (3 km/h) 0 mm0 mm 0 min 0 W/m²
04:06 13.1 °C 11.5 °C 90 % 0 km/h (3 km/h) 0 mm0 mm 0 min 0 W/m²
04:00 13.3 °C 12 °C 92 % 0 km/h (3 km/h) 0 mm0 mm 0 min 0 W/m²
03:54 13.4 °C 12.3 °C 93 % 0 km/h (3 km/h) 0 mm0 mm 0 min 0 W/m²
03:48 13.4 °C 12.5 °C 94 % 2 km/h (3 km/h) 0 mm0 mm 0 min 0 W/m²
03:42 13 °C 11.9 °C 93 % 3 km/h (4 km/h) 0 mm0 mm 0 min 0 W/m²
03:36 13 °C 11.6 °C 91 % 3 km/h (4 km/h) 0 mm0 mm 0 min 0 W/m²
03:30 13.1 °C 11.8 °C 92 % 3 km/h (4 km/h) 0 mm0 mm 0 min 0 W/m²
03:24 13 °C 11.6 °C 91 % 3 km/h (4 km/h) 0 mm0 mm 0 min 0 W/m²
03:18 12.8 °C 10.9 °C 88 % 3 km/h (4 km/h) 0 mm0 mm 0 min 0 W/m²
03:12 13.1 °C 11.3 °C 89 % 2 km/h (4 km/h) 0 mm0 mm 0 min 0 W/m²
03:06 13.4 °C 11.8 °C 90 % 0 km/h (3 km/h) 0 mm0 mm 0 min 0 W/m²
03:00 13.6 °C 12.5 °C 93 % 0 km/h (3 km/h) 0 mm0 mm 0 min 0 W/m²
02:54 13.4 °C 12.1 °C 92 % 3 km/h (4 km/h) 0 mm0 mm 0 min 0 W/m²
02:48 13.2 °C 11.4 °C 89 % 2 km/h (4 km/h) 0 mm0 mm 0 min 0 W/m²
02:42 13.3 °C 11.7 °C 90 % 0 km/h (2 km/h) 0 mm0 mm 0 min 0 W/m²
02:36 13.2 °C 11.3 °C 88 % 0 km/h (2 km/h) 0 mm0 mm 0 min 0 W/m²
02:30 13.4 °C 11.3 °C 87 % 0 km/h (2 km/h) 0 mm0 mm 0 min 0 W/m²
02:24 13.7 °C 11.9 °C 89 % 0 km/h (0 km/h) 0 mm0 mm 0 min 0 W/m²
02:18 13.7 °C 11.7 °C 88 % 0 km/h (0 km/h) 0 mm0 mm 0 min 0 W/m²
02:12 13.7 °C 11.7 °C 88 % 0 km/h (0 km/h) 0 mm0 mm 0 min 0 W/m²
02:06 13.8 °C 11.7 °C 87 % 0 km/h (2 km/h) 0 mm0 mm 0 min 0 W/m²
02:00 13.7 °C 11.2 °C 85 % 0 km/h (2 km/h) 0 mm0 mm 0 min 0 W/m²
01:54 14 °C 11.7 °C 86 % 0 km/h (0 km/h) 0 mm0 mm 0 min 0 W/m²
01:48 14.2 °C 11.9 °C 86 % 0 km/h (3 km/h) 0 mm0 mm 0 min 0 W/m²
01:42 14.1 °C 11.6 °C 85 % 0 km/h (3 km/h) 0 mm0 mm 0 min 0 W/m²
01:36 14.2 °C 11.2 °C 82 % 2 km/h (4 km/h) 0 mm0 mm 0 min 0 W/m²
01:30 14.6 °C 11.7 °C 83 % 3 km/h (4 km/h) 0 mm0 mm 0 min 0 W/m²
01:24 14.7 °C 11.8 °C 83 % 2 km/h (4 km/h) 0 mm0 mm 0 min 0 W/m²
01:18 14.9 °C 11.9 °C 82 % 2 km/h (4 km/h) 0 mm0 mm 0 min 0 W/m²
01:12 15 °C 11.9 °C 82 % 0 km/h (3 km/h) 0 mm0 mm 0 min 0 W/m²
01:06 14.8 °C 12.1 °C 84 % 0 km/h (3 km/h) 0 mm0 mm 0 min 0 W/m²
01:00 14.5 °C 11.8 °C 84 % 0 km/h (3 km/h) 0 mm0 mm 0 min 0 W/m²
00:54 14.5 °C 11.3 °C 81 % 2 km/h (4 km/h) 0 mm0 mm 0 min 0 W/m²
00:48 14.8 °C 11.4 °C 80 % 2 km/h (5 km/h) 0 mm0 mm 0 min 0 W/m²
00:42 15.5 °C 11.7 °C 78 % 0 km/h (3 km/h) 0 mm0 mm 0 min 0 W/m²
00:36 15.9 °C 11.5 °C 75 % 0 km/h (4 km/h) 0 mm0 mm 0 min 0 W/m²
00:30 16.6 °C 12.1 °C 75 % 4 km/h (7 km/h) 0 mm0 mm 0 min 0 W/m²
00:24 17 °C 12.3 °C 74 % 5 km/h (7 km/h) 0 mm0 mm 0 min 0 W/m²
00:18 17.1 °C 12.6 °C 75 % 3 km/h (6 km/h) 0 mm0 mm 0 min 0 W/m²
00:12 16.5 °C 12.6 °C 78 % 0 km/h (5 km/h) 0 mm0 mm 0 min 0 W/m²
00:06 16 °C 12.7 °C 81 % 2 km/h (4 km/h) 0 mm0 mm 0 min 0 W/m²
00:00 15.4 °C 12 °C 80 % 3 km/h (5 km/h) 0 mm0 mm 0 min 0 W/m²

Données via Météo-France

Relevés météo à Lurcy-Levis Sa

Cette page rassemble les observations de la station de Lurcy-Levis Sa : température, humidité, vent, précipitations et pression atmosphérique. Les graphiques facilitent le suivi de la journée, tandis que le tableau donne accès aux mesures horaires et infra-horaires disponibles.

Pour replacer ces mesures dans leur contexte, consultez la climatologie de Lurcy-Levis Sa ainsi que ses normales et records. Retrouvez aussi la carte des observations météo en temps réel.